Time;durP1;ratioP1;P1;durP2;ratioP2;P2;SDS_P1;SDS_P2;PMS_P1;PMS_P2;Temp;Humidity;BMP_temperature;BMP_pressure;BME280_temperature;BME280_humidity;BME280_pressure;Samples;Min_cycle;Max_cycle;Signal;HPM_P1;HPM_P2
2023/07/22 00:00:15;;;;;;;10.75;6.93;;;;;;;17.27;82.91;101265.09;5115662;28;20394;-63
2023/07/22 00:02:44;;;;;;;11.25;7.47;;;;;;;17.27;82.37;101269.75;5114512;28;20448;-62
2023/07/22 00:05:12;;;;;;;11.68;7.53;;;;;;;17.27;82.63;101262.34;5113752;28;20047;-64
2023/07/22 00:07:40;;;;;;;11.48;7.68;;;;;;;17.30;82.98;101271.94;5115740;28;20035;-64
2023/07/22 00:10:09;;;;;;;12.27;8.00;;;;;;;17.29;82.54;101267.53;5114584;28;20043;-64
2023/07/22 00:12:37;;;;;;;10.85;7.53;;;;;;;17.31;82.97;101270.81;5115066;28;20476;-63
2023/07/22 00:15:06;;;;;;;12.80;7.18;;;;;;;17.29;83.21;101264.78;5114333;28;20043;-64
2023/07/22 00:17:33;;;;;;;13.15;8.20;;;;;;;17.28;82.69;101263.16;5114384;28;20099;-65
2023/07/22 00:20:04;;;;;;;11.65;7.85;;;;;;;17.25;82.86;101261.81;5115470;28;20043;-65
2023/07/22 00:22:32;;;;;;;12.32;7.57;;;;;;;17.26;83.36;101263.44;5115486;28;20065;-64
2023/07/22 00:25:00;;;;;;;13.15;7.82;;;;;;;17.25;82.93;101264.56;5114683;28;20046;-62
2023/07/22 00:27:28;;;;;;;12.07;7.70;;;;;;;17.23;82.81;101264.88;5113150;28;20488;-64
2023/07/22 00:29:56;;;;;;;13.02;8.73;;;;;;;17.23;83.01;101264.06;5113981;28;20039;-64
2023/07/22 00:32:23;;;;;;;12.43;8.55;;;;;;;17.24;83.55;101255.50;5088221;28;20048;-64
2023/07/22 00:34:51;;;;;;;17.00;9.32;;;;;;;17.22;83.56;101260.50;5100667;28;20392;-63
2023/07/22 00:37:19;;;;;;;14.93;8.63;;;;;;;17.20;83.35;101259.97;5114395;28;20048;-65
2023/07/22 00:39:47;;;;;;;13.10;8.25;;;;;;;17.22;83.38;101256.91;5115110;28;20080;-64
2023/07/22 00:42:15;;;;;;;14.18;9.15;;;;;;;17.19;83.19;101257.50;5114306;28;20047;-64
2023/07/22 00:44:43;;;;;;;14.82;10.05;;;;;;;17.15;83.45;101262.81;5113557;28;20070;-63
2023/07/22 00:47:11;;;;;;;15.90;10.80;;;;;;;17.12;83.94;101257.09;5113821;28;20050;-64
2023/07/22 00:49:39;;;;;;;17.23;11.55;;;;;;;17.12;84.21;101257.09;5114941;28;20040;-63
2023/07/22 00:52:07;;;;;;;14.25;9.38;;;;;;;17.15;84.76;101261.97;5114922;28;20100;-64
2023/07/22 00:54:35;;;;;;;13.88;9.95;;;;;;;17.13;85.10;101258.75;5080026;28;20048;-65
2023/07/22 00:57:03;;;;;;;18.02;11.35;;;;;;;17.14;85.88;101254.84;5092263;28;20121;-64
2023/07/22 00:59:31;;;;;;;10.13;7.22;;;;;;;17.15;85.73;101250.97;5113326;28;20044;-63
2023/07/22 01:01:59;;;;;;;20.67;12.35;;;;;;;17.06;86.94;101250.84;5096675;28;20054;-65
2023/07/22 01:04:27;;;;;;;16.98;11.55;;;;;;;16.98;87.79;101246.03;5114426;28;20049;-64
2023/07/22 01:06:55;;;;;;;16.92;11.88;;;;;;;16.92;88.95;101241.72;5095879;28;20500;-63
2023/07/22 01:09:23;;;;;;;18.13;11.32;;;;;;;16.91;90.08;101251.94;5113772;28;20039;-63
2023/07/22 01:11:51;;;;;;;18.33;11.00;;;;;;;16.92;90.27;101247.25;5113034;28;20048;-64
2023/07/22 01:14:18;;;;;;;13.57;9.45;;;;;;;16.91;90.63;101235.41;5114013;28;20047;-64
2023/07/22 01:16:46;;;;;;;16.67;10.27;;;;;;;16.93;91.37;101240.59;5096499;28;20051;-64
2023/07/22 01:19:15;;;;;;;17.65;9.85;;;;;;;16.92;91.44;101242.53;5111538;28;20040;-62
2023/07/22 01:21:43;;;;;;;16.45;10.30;;;;;;;16.91;91.65;101240.09;5113252;28;20054;-64
2023/07/22 01:24:12;;;;;;;15.40;10.10;;;;;;;16.90;92.35;101233.75;5096448;28;20398;-64
2023/07/22 01:26:41;;;;;;;15.95;10.60;;;;;;;16.90;92.43;101230.19;5096057;28;20483;-63
2023/07/22 01:29:09;;;;;;;16.05;9.52;;;;;;;16.90;92.82;101231.00;5095418;28;20036;-64
2023/07/22 01:31:37;;;;;;;14.82;9.45;;;;;;;16.91;92.75;101235.41;5112710;28;20604;-65
2023/07/22 01:34:05;;;;;;;14.88;9.55;;;;;;;16.92;92.70;101231.53;5114366;28;20053;-64
2023/07/22 01:36:33;;;;;;;13.60;9.48;;;;;;;16.91;92.89;101235.41;5113949;28;20051;-63
2023/07/22 01:39:01;;;;;;;13.75;9.15;;;;;;;16.94;92.77;101232.06;5113599;28;20048;-62
2023/07/22 01:41:29;;;;;;;12.85;8.85;;;;;;;16.94;93.05;101226.56;5113829;28;20092;-62
2023/07/22 01:43:57;;;;;;;15.00;9.65;;;;;;;16.93;93.31;101227.69;5113894;28;20071;-65
2023/07/22 01:46:25;;;;;;;15.65;8.77;;;;;;;16.95;92.78;101225.41;5112889;28;20469;-64
2023/07/22 01:48:55;;;;;;;12.98;8.60;;;;;;;16.98;92.24;101222.09;5112339;28;20040;-62
2023/07/22 01:51:22;;;;;;;14.57;9.60;;;;;;;16.94;91.97;101231.25;5112879;28;20052;-64
2023/07/22 01:53:51;;;;;;;13.02;8.70;;;;;;;16.95;91.51;101222.66;5113431;28;20095;-64
2023/07/22 01:56:20;;;;;;;15.00;9.20;;;;;;;16.94;91.30;101217.47;5112084;28;20373;-63
2023/07/22 01:58:48;;;;;;;13.73;9.25;;;;;;;16.92;91.22;101215.03;5112455;28;20061;-64
2023/07/22 02:01:16;;;;;;;12.57;8.48;;;;;;;16.94;90.95;101220.22;5111844;28;20052;-63
2023/07/22 02:03:44;;;;;;;17.58;10.05;;;;;;;16.91;90.85;101224.41;5114406;28;20043;-64
2023/07/22 02:06:13;;;;;;;13.35;9.73;;;;;;;16.90;90.75;101221.94;5113034;28;20539;-63
2023/07/22 02:08:41;;;;;;;16.27;10.63;;;;;;;16.89;90.73;101218.38;5112773;28;20402;-64
2023/07/22 02:11:09;;;;;;;14.75;9.38;;;;;;;16.88;90.63;101221.44;5110606;28;20050;-64
2023/07/22 02:13:36;;;;;;;12.55;8.77;;;;;;;16.83;90.80;101217.63;5112810;28;20048;-64
2023/07/22 02:16:04;;;;;;;15.13;9.73;;;;;;;16.86;90.84;101215.41;5112414;28;20406;-64
2023/07/22 02:18:32;;;;;;;13.20;8.75;;;;;;;16.83;90.58;101216.81;5112438;28;20047;-64
2023/07/22 02:21:00;;;;;;;16.25;10.82;;;;;;;16.82;90.77;101226.22;5112523;28;20415;-64
2023/07/22 02:23:28;;;;;;;13.93;10.38;;;;;;;16.82;90.91;101217.94;5084717;28;20047;-63
2023/07/22 02:25:56;;;;;;;15.00;9.82;;;;;;;16.81;91.05;101219.06;5113176;28;20043;-63
2023/07/22 02:28:24;;;;;;;13.45;8.95;;;;;;;16.81;90.85;101210.78;5113733;28;20054;-64
2023/07/22 02:30:53;;;;;;;15.43;9.82;;;;;;;16.80;91.24;101215.50;5110905;28;20064;-64
2023/07/22 02:33:22;;;;;;;15.07;9.27;;;;;;;16.79;91.53;101213.06;5113094;28;20043;-63
2023/07/22 02:35:50;;;;;;;13.77;9.25;;;;;;;16.79;91.65;101210.31;5112012;28;20044;-64
2023/07/22 02:38:18;;;;;;;13.65;8.75;;;;;;;16.79;91.59;101207.56;5095312;28;20054;-64
2023/07/22 02:40:45;;;;;;;13.27;8.40;;;;;;;16.82;91.49;101204.19;5103270;28;20155;-61
2023/07/22 02:43:13;;;;;;;13.60;8.85;;;;;;;16.82;91.70;101201.44;5100604;28;20123;-64
2023/07/22 02:45:41;;;;;;;13.30;9.25;;;;;;;16.81;91.28;101203.38;5098958;28;20055;-62
2023/07/22 02:48:09;;;;;;;16.17;9.63;;;;;;;16.79;91.70;101202.84;5130128;28;20079;-63
2023/07/22 02:50:37;;;;;;;14.10;9.05;;;;;;;16.77;91.64;101204.25;5127936;28;20110;-63
2023/07/22 02:53:05;;;;;;;14.95;10.23;;;;;;;16.74;91.75;101202.06;5117964;28;20119;-64
2023/07/22 02:55:33;;;;;;;20.08;11.20;;;;;;;16.73;92.15;101208.72;5117869;28;20084;-64
2023/07/22 02:58:01;;;;;;;15.10;9.57;;;;;;;16.70;92.19;101206.56;5120080;28;20112;-62
2023/07/22 03:00:29;;;;;;;16.00;10.48;;;;;;;16.70;92.18;101206.56;5129920;28;20110;-62
2023/07/22 03:03:00;;;;;;;16.25;10.15;;;;;;;16.70;92.02;101206.56;5121813;28;20122;-63
2023/07/22 03:05:30;;;;;;;15.90;9.70;;;;;;;16.68;92.18;101214.28;5095282;28;20399;-63
2023/07/22 03:07:58;;;;;;;13.15;9.23;;;;;;;16.68;92.03;101208.78;5096334;28;20052;-65
2023/07/22 03:10:26;;;;;;;13.73;9.52;;;;;;;16.67;92.01;101212.66;5097876;28;20044;-63
2023/07/22 03:12:55;;;;;;;15.27;10.30;;;;;;;16.66;92.14;101209.09;5115433;28;20051;-62
2023/07/22 03:15:26;;;;;;;16.73;10.60;;;;;;;16.65;91.85;101220.41;5113307;28;20410;-64
2023/07/22 03:17:59;;;;;;;12.85;9.02;;;;;;;16.61;91.85;101215.47;5096312;28;20043;-64
2023/07/22 03:20:27;;;;;;;14.30;9.90;;;;;;;16.64;91.79;101216.00;5062369;28;20101;-64
2023/07/22 03:22:55;;;;;;;15.77;10.35;;;;;;;16.60;91.56;101222.09;5113962;28;20054;-64
2023/07/22 03:25:23;;;;;;;14.05;9.45;;;;;;;16.63;91.64;101223.44;5098246;28;20039;-63
2023/07/22 03:27:51;;;;;;;13.00;9.30;;;;;;;16.59;91.33;101223.22;5116654;28;20054;-64
2023/07/22 03:30:22;;;;;;;15.20;10.05;;;;;;;16.57;91.09;101225.47;5115480;28;20096;-64
2023/07/22 03:32:51;;;;;;;17.45;9.60;;;;;;;16.53;91.24;101223.59;5112994;28;20553;-62
2023/07/22 03:35:19;;;;;;;14.70;10.05;;;;;;;16.51;91.30;101232.16;5114803;28;20047;-63
2023/07/22 03:37:47;;;;;;;12.65;9.38;;;;;;;16.52;91.56;101228.28;5115141;28;20103;-63
2023/07/22 03:40:28;;;;;;;14.23;9.73;;;;;;;16.50;90.81;101230.53;5115036;28;20092;-65
2023/07/22 03:42:57;;;;;;;15.52;10.10;;;;;;;16.49;91.57;101234.38;5114927;28;20054;-64
2023/07/22 03:45:25;;;;;;;14.65;9.73;;;;;;;16.48;91.04;101232.75;5114871;28;20039;-64
2023/07/22 03:47:58;;;;;;;12.98;8.77;;;;;;;16.49;91.01;101234.38;5115022;28;20051;-64
2023/07/22 03:50:26;;;;;;;14.18;9.35;;;;;;;16.49;91.13;101230.81;5097815;28;20041;-64
2023/07/22 03:52:54;;;;;;;14.20;10.02;;;;;;;16.47;90.97;101225.59;5113988;28;20047;-63
2023/07/22 03:55:22;;;;;;;14.55;10.13;;;;;;;16.48;90.91;101227.25;5108317;28;20047;-64
2023/07/22 03:57:50;;;;;;;17.33;10.93;;;;;;;16.45;90.68;101227.00;5115545;28;20046;-63
2023/07/22 04:00:19;;;;;;;16.52;9.52;;;;;;;16.44;90.66;101225.38;5113599;28;20045;-64
2023/07/22 04:02:47;;;;;;;14.80;9.57;;;;;;;16.43;90.79;101219.09;5096451;28;20053;-66
2023/07/22 04:05:15;;;;;;;14.88;10.35;;;;;;;16.45;90.67;101222.34;5093553;28;20044;-63
2023/07/22 04:07:45;;;;;;;16.20;10.90;;;;;;;16.43;90.26;101224.59;5113220;28;20460;-63
2023/07/22 04:10:13;;;;;;;17.45;10.32;;;;;;;16.41;90.36;101226.81;5097203;28;20117;-64
2023/07/22 04:12:40;;;;;;;13.30;8.77;;;;;;;16.39;90.87;101223.53;5114294;28;20475;-64
2023/07/22 04:15:10;;;;;;;14.45;10.20;;;;;;;16.36;90.68;101219.44;5112038;28;20510;-63
2023/07/22 04:17:38;;;;;;;14.57;9.20;;;;;;;16.35;91.00;101222.47;5097471;28;20046;-64
2023/07/22 04:20:08;;;;;;;13.52;9.60;;;;;;;16.34;90.78;101226.34;5114005;28;20062;-64
2023/07/22 04:22:36;;;;;;;14.63;9.73;;;;;;;16.36;91.06;101229.63;5115821;28;20046;-62
2023/07/22 04:25:05;;;;;;;16.23;9.60;;;;;;;16.37;91.26;101231.25;5088740;28;20058;-64
2023/07/22 04:27:34;;;;;;;12.73;9.07;;;;;;;16.38;91.26;101228.22;5085736;28;20065;-63
2023/07/22 04:30:02;;;;;;;12.30;9.23;;;;;;;16.37;90.93;101232.06;5085764;28;20052;-61
2023/07/22 04:32:31;;;;;;;13.38;9.57;;;;;;;16.36;91.13;101230.44;5094243;28;20060;-64
2023/07/22 04:34:59;;;;;;;15.98;9.55;;;;;;;16.37;90.69;101229.31;5092401;28;20089;-64
2023/07/22 04:37:27;;;;;;;15.40;9.63;;;;;;;16.36;90.97;101229.63;5072951;28;20054;-63
2023/07/22 04:39:55;;;;;;;12.85;8.88;;;;;;;16.37;91.21;101228.50;5094138;28;20399;-62
2023/07/22 04:42:23;;;;;;;12.00;8.60;;;;;;;16.34;90.88;101231.84;5076219;28;20059;-64
2023/07/22 04:44:51;;;;;;;14.30;9.07;;;;;;;16.35;90.69;101237.03;5093350;28;20055;-64
2023/07/22 04:47:19;;;;;;;11.95;8.60;;;;;;;16.35;91.36;101237.03;5091505;28;20039;-63
2023/07/22 04:49:47;;;;;;;15.85;10.07;;;;;;;16.36;91.16;101237.88;5094366;28;20036;-64
2023/07/22 04:52:14;;;;;;;14.27;9.52;;;;;;;16.35;90.98;101236.22;5077004;28;20040;-64
2023/07/22 04:54:42;;;;;;;15.23;8.68;;;;;;;16.37;91.86;101236.75;5090766;28;20048;-64
2023/07/22 04:57:10;;;;;;;13.90;8.52;;;;;;;16.37;91.49;101232.06;5089045;28;20469;-63
2023/07/22 04:59:38;;;;;;;10.05;6.93;;;;;;;16.38;91.69;101232.91;5073631;28;20052;-63
2023/07/22 05:02:06;;;;;;;14.38;9.38;;;;;;;16.38;91.45;101235.66;5075544;28;20047;-64
2023/07/22 05:04:34;;;;;;;13.20;8.85;;;;;;;16.38;91.20;101239.22;5093555;28;20097;-64
2023/07/22 05:07:02;;;;;;;10.95;6.95;;;;;;;16.39;92.26;101237.28;5086025;28;20050;-63
2023/07/22 05:09:30;;;;;;;16.20;9.13;;;;;;;16.39;91.62;101240.03;5075337;28;20050;-64
2023/07/22 05:11:58;;;;;;;15.38;10.10;;;;;;;16.40;91.54;101236.16;5076344;28;20048;-64
2023/07/22 05:14:26;;;;;;;13.75;9.32;;;;;;;16.49;92.23;101239.06;5088727;28;20053;-65
2023/07/22 05:16:54;;;;;;;11.93;8.30;;;;;;;16.49;92.17;101239.88;5084815;28;20060;-65
2023/07/22 05:19:22;;;;;;;14.68;10.13;;;;;;;16.48;91.22;101242.94;5090226;28;20059;-64
2023/07/22 05:21:49;;;;;;;13.35;9.20;;;;;;;16.49;91.57;101245.38;5076017;28;20476;-63
2023/07/22 05:24:18;;;;;;;11.82;7.10;;;;;;;16.48;92.14;101238.25;5059266;28;20052;-63
2023/07/22 05:26:45;;;;;;;13.00;9.20;;;;;;;16.54;92.26;101237.03;5074905;28;20044;-62
2023/07/22 05:29:30;;;;;;;14.77;9.43;;;;;;;16.55;91.92;101233.19;5053482;28;20052;-62
2023/07/22 05:31:57;;;;;;;11.73;7.68;;;;;;;16.58;91.88;101238.09;5066201;28;20049;-64
2023/07/22 05:34:25;;;;;;;16.50;10.20;;;;;;;16.57;91.67;101236.47;5100676;28;20396;-63
2023/07/22 05:36:53;;;;;;;14.60;9.55;;;;;;;16.64;91.29;101246.25;5114171;28;20055;-64
2023/07/22 05:39:21;;;;;;;9.90;6.32;;;;;;;16.67;91.66;101245.66;5110139;28;20043;-65
2023/07/22 05:41:50;;;;;;;19.95;10.43;;;;;;;16.71;91.60;101249.47;5113452;28;20047;-63
2023/07/22 05:44:18;;;;;;;14.05;8.30;;;;;;;16.73;91.24;101255.50;5113638;28;20050;-64
2023/07/22 05:46:45;;;;;;;13.35;8.02;;;;;;;16.64;91.09;101246.25;5112791;28;20096;-64
2023/07/22 05:49:13;;;;;;;17.73;11.77;;;;;;;16.54;91.83;101247.25;5110189;28;20112;-64
2023/07/22 05:51:41;;;;;;;16.23;10.93;;;;;;;16.48;92.20;101249.25;5110618;28;20050;-64
2023/07/22 05:54:09;;;;;;;14.95;8.57;;;;;;;16.47;92.33;101250.34;5109138;28;20036;-61
2023/07/22 05:56:37;;;;;;;16.88;10.95;;;;;;;16.48;92.93;101243.75;5091248;28;20046;-63
2023/07/22 05:59:05;;;;;;;13.90;9.02;;;;;;;16.55;92.79;101240.63;5106338;28;20066;-63
2023/07/22 06:01:32;;;;;;;15.98;10.63;;;;;;;16.53;93.14;101238.19;5101865;28;20050;-64
2023/07/22 06:04:00;;;;;;;16.48;9.77;;;;;;;16.60;93.39;101241.38;5107618;28;20406;-64
2023/07/22 06:06:28;;;;;;;16.23;9.48;;;;;;;16.68;92.82;101233.56;5093991;28;20415;-64
2023/07/22 06:08:56;;;;;;;10.95;7.03;;;;;;;16.73;92.93;101239.78;5099388;28;20495;-64
2023/07/22 06:11:25;;;;;;;14.98;9.15;;;;;;;16.77;93.19;101240.03;5099549;28;20192;-65
2023/07/22 06:13:53;;;;;;;14.82;9.02;;;;;;;16.86;92.62;101238.25;5111835;28;20492;-63
2023/07/22 06:16:21;;;;;;;17.50;11.98;;;;;;;16.81;93.22;101232.81;5113759;28;20443;-64
2023/07/22 06:18:48;;;;;;;10.93;7.10;;;;;;;16.80;93.31;101228.44;5104990;28;20044;-63
2023/07/22 06:21:16;;;;;;;15.98;9.00;;;;;;;16.92;93.09;101226.03;5110751;28;20441;-64
2023/07/22 06:23:44;;;;;;;14.75;8.93;;;;;;;16.99;92.67;101231.97;5098290;28;20051;-64
2023/07/22 06:26:12;;;;;;;21.20;11.52;;;;;;;16.97;93.03;101234.19;5115935;28;20424;-63
2023/07/22 06:28:40;;;;;;;15.95;8.07;;;;;;;16.95;93.14;101230.94;5115931;28;20048;-65
2023/07/22 06:31:07;;;;;;;17.88;9.38;;;;;;;16.97;93.38;101228.69;5114904;28;20067;-63
2023/07/22 06:33:36;;;;;;;17.08;10.98;;;;;;;16.92;94.26;101228.78;5115377;28;20096;-63
2023/07/22 06:36:04;;;;;;;16.75;8.82;;;;;;;16.98;93.58;101224.00;5117177;28;20060;-64
2023/07/22 06:38:32;;;;;;;20.77;7.10;;;;;;;17.20;94.36;101226.13;5114915;28;20084;-63
2023/07/22 06:41:00;;;;;;;21.75;12.55;;;;;;;17.12;93.87;101213.03;5115972;28;20054;-66
2023/07/22 06:43:27;;;;;;;16.10;8.85;;;;;;;17.10;93.86;101220.78;5118154;28;20050;-66
2023/07/22 06:45:55;;;;;;;17.55;9.90;;;;;;;17.22;93.88;101218.34;5117349;28;20390;-65
2023/07/22 06:48:23;;;;;;;18.25;9.07;;;;;;;17.22;93.56;101219.19;5099742;28;20055;-66
2023/07/22 06:50:51;;;;;;;16.88;9.15;;;;;;;17.25;93.84;101220.50;5117518;28;20043;-66
2023/07/22 06:53:19;;;;;;;16.88;9.30;;;;;;;17.40;93.34;101225.72;5117511;28;20055;-66
2023/07/22 06:55:51;;;;;;;16.30;10.68;;;;;;;17.33;92.86;101214.28;5117477;28;20122;-66
2023/07/22 06:58:20;;;;;;;15.63;9.02;;;;;;;17.31;92.86;101205.50;5116937;28;20112;-66
2023/07/22 07:00:48;;;;;;;15.90;9.98;;;;;;;17.38;93.20;101200.41;5116104;28;20080;-65
2023/07/22 07:03:15;;;;;;;22.58;12.82;;;;;;;17.31;94.20;101200.00;5116965;28;20047;-65
2023/07/22 07:05:43;;;;;;;21.98;11.00;;;;;;;17.32;94.26;101201.66;5116569;28;20049;-63
2023/07/22 07:08:11;;;;;;;40.90;14.15;;;;;;;17.44;93.35;101207.47;5107688;28;20048;-65
2023/07/22 07:10:39;;;;;;;23.13;13.30;;;;;;;17.43;93.92;101208.59;5097562;28;20050;-66
2023/07/22 07:13:09;;;;;;;19.05;12.40;;;;;;;17.38;93.99;101205.13;5096119;28;20050;-65
2023/07/22 07:15:37;;;;;;;22.50;11.57;;;;;;;17.37;93.85;101209.81;5120533;28;20099;-68
2023/07/22 07:18:05;;;;;;;24.70;10.70;;;;;;;17.34;93.91;101204.94;5131979;28;20083;-64
2023/07/22 07:20:33;;;;;;;22.63;11.90;;;;;;;17.38;94.47;101211.44;5129079;28;20106;-66
2023/07/22 07:23:00;;;;;;;20.00;13.38;;;;;;;17.34;95.10;101213.19;5116975;28;20044;-66
2023/07/22 07:25:28;;;;;;;19.40;12.13;;;;;;;17.27;95.37;101207.25;5123007;28;20099;-66
2023/07/22 07:27:56;;;;;;;28.98;13.05;;;;;;;17.39;94.09;101207.59;5132492;28;20078;-65
2023/07/22 07:30:24;;;;;;;27.95;12.90;;;;;;;17.40;94.04;101211.97;5132773;28;20085;-66
2023/07/22 07:32:52;;;;;;;36.80;13.27;;;;;;;17.44;93.28;101203.91;5125054;28;20135;-66
2023/07/22 07:35:21;;;;;;;24.42;13.00;;;;;;;17.46;94.62;101212.66;5099976;28;20053;-66
2023/07/22 07:37:49;;;;;;;26.02;13.57;;;;;;;17.42;95.44;101211.66;5116963;28;20050;-66
2023/07/22 07:40:17;;;;;;;23.73;12.05;;;;;;;17.42;95.16;101215.22;5118086;28;20047;-66
2023/07/22 07:42:45;;;;;;;22.20;11.60;;;;;;;17.56;93.70;101217.19;5118242;28;20051;-65
2023/07/22 07:45:13;;;;;;;23.02;11.88;;;;;;;17.63;93.15;101212.06;5116414;28;20048;-66
2023/07/22 07:47:41;;;;;;;22.08;10.90;;;;;;;17.62;93.52;101208.50;5117028;28;20047;-65
2023/07/22 07:50:09;;;;;;;24.77;10.85;;;;;;;17.71;93.39;101207.78;5116738;28;20043;-68
2023/07/22 07:52:38;;;;;;;22.60;9.23;;;;;;;17.66;92.96;101211.47;5117292;28;20041;-64
2023/07/22 07:55:06;;;;;;;21.00;10.55;;;;;;;17.66;93.33;101208.72;5115281;28;20050;-64
2023/07/22 07:57:34;;;;;;;20.15;12.60;;;;;;;17.70;94.16;101206.97;5114981;28;20040;-65
2023/07/22 08:00:03;;;;;;;17.23;10.45;;;;;;;17.62;94.78;101215.94;5114353;28;20402;-66
2023/07/22 08:02:32;;;;;;;18.92;10.45;;;;;;;17.60;95.02;101209.91;5116419;28;20053;-65
2023/07/22 08:05:00;;;;;;;22.13;9.73;;;;;;;17.75;93.24;101209.63;5115588;28;20385;-66
2023/07/22 08:07:27;;;;;;;20.95;10.85;;;;;;;17.84;93.26;101209.75;5116274;28;20054;-64
2023/07/22 08:09:57;;;;;;;19.45;10.07;;;;;;;17.83;93.47;101219.97;5113124;28;20062;-66
2023/07/22 08:12:25;;;;;;;21.23;11.00;;;;;;;17.91;93.87;101210.16;5097105;28;20216;-67
2023/07/22 08:14:53;;;;;;;22.20;11.90;;;;;;;17.96;93.52;101215.53;5113581;28;20403;-64
2023/07/22 08:17:21;;;;;;;18.63;9.35;;;;;;;17.91;93.38;101217.59;5115142;28;20050;-64
2023/07/22 08:19:49;;;;;;;22.50;10.85;;;;;;;18.01;93.23;101211.88;5114887;28;20039;-65
2023/07/22 08:22:17;;;;;;;18.75;11.00;;;;;;;17.99;93.18;101219.63;5114219;28;20048;-66
2023/07/22 08:24:45;;;;;;;19.60;10.75;;;;;;;17.99;93.46;101214.13;5114748;28;20055;-66
2023/07/22 08:27:16;;;;;;;20.73;11.80;;;;;;;17.98;93.93;101220.75;5114737;28;20048;-66
2023/07/22 08:29:44;;;;;;;20.98;11.57;;;;;;;17.95;93.69;101221.38;5115323;28;20483;-65
2023/07/22 08:32:12;;;;;;;19.42;11.05;;;;;;;17.86;93.86;101222.09;5107349;28;20435;-64
2023/07/22 08:34:40;;;;;;;19.08;9.23;;;;;;;17.90;93.05;101218.75;5113876;28;20056;-64
2023/07/22 08:37:08;;;;;;;17.92;7.93;;;;;;;17.98;92.62;101221.56;5097283;28;20116;-64
2023/07/22 08:39:36;;;;;;;18.58;8.98;;;;;;;18.01;92.87;101218.19;5115673;28;20057;-65
2023/07/22 08:42:05;;;;;;;20.55;9.82;;;;;;;18.13;92.33;101219.63;5097542;28;20070;-65
2023/07/22 08:44:34;;;;;;;16.50;9.68;;;;;;;18.12;90.81;101224.31;5097425;28;20054;-64
2023/07/22 08:47:06;;;;;;;23.38;10.73;;;;;;;18.19;91.02;101215.63;5072310;28;20052;-69
2023/07/22 08:49:34;;;;;;;22.83;11.02;;;;;;;18.36;90.62;101209.47;5079179;28;20062;-65
2023/07/22 08:52:02;;;;;;;19.80;10.18;;;;;;;18.35;89.88;101210.56;5060375;28;20054;-65
2023/07/22 08:54:31;;;;;;;20.15;9.57;;;;;;;18.46;89.62;101207.25;5103490;28;20150;-66
2023/07/22 08:56:59;;;;;;;18.30;8.68;;;;;;;18.49;89.55;101211.34;5113513;28;20046;-67
2023/07/22 08:59:27;;;;;;;16.85;8.95;;;;;;;18.44;87.47;101217.78;5113642;28;20096;-65
2023/07/22 09:01:55;;;;;;;16.85;8.75;;;;;;;18.39;86.15;101214.34;5113684;28;20376;-65
2023/07/22 09:04:23;;;;;;;14.07;6.90;;;;;;;18.43;85.14;101207.09;5096665;28;20052;-65
2023/07/22 09:06:51;;;;;;;14.93;7.65;;;;;;;18.60;87.93;101207.22;5114954;28;20047;-66
2023/07/22 09:09:19;;;;;;;13.05;7.32;;;;;;;18.59;84.64;101213.88;5078462;28;20052;-67
2023/07/22 09:11:48;;;;;;;14.32;7.93;;;;;;;18.60;83.56;101207.22;5097003;28;20055;-64
2023/07/22 09:14:17;;;;;;;14.80;6.20;;;;;;;18.50;83.13;101219.31;5095442;28;20194;-66
2023/07/22 09:17:03;;;;;;;13.02;5.95;;;;;;;18.53;86.05;101213.16;5069235;28;20047;-65
2023/07/22 09:19:31;;;;;;;17.70;8.32;;;;;;;18.53;84.25;101215.94;5111799;28;20035;-65
2023/07/22 09:21:59;;;;;;;12.68;6.32;;;;;;;18.48;85.14;101216.06;5096238;28;20151;-65
2023/07/22 09:24:28;;;;;;;12.93;6.90;;;;;;;18.57;86.33;101213.38;5096377;28;20058;-65
2023/07/22 09:26:58;;;;;;;11.00;6.80;;;;;;;18.55;84.81;101207.34;5114457;28;20056;-65
2023/07/22 09:29:37;;;;;;;14.35;7.47;;;;;;;18.53;83.31;101206.84;5094302;28;20055;-66
2023/07/22 09:32:07;;;;;;;13.95;7.07;;;;;;;18.51;82.95;101214.59;5114360;28;20071;-64
2023/07/22 09:34:35;;;;;;;13.45;7.80;;;;;;;18.51;83.01;101203.56;5113709;28;20488;-65
2023/07/22 09:37:03;;;;;;;11.13;6.35;;;;;;;18.56;83.34;101206.19;5114266;28;20052;-65
2023/07/22 09:39:31;;;;;;;12.48;6.47;;;;;;;18.57;81.23;101207.84;5112818;28;20050;-67
2023/07/22 09:42:01;;;;;;;11.82;5.55;;;;;;;18.72;84.23;101193.66;5114392;28;20429;-66
2023/07/22 09:44:32;;;;;;;10.50;5.88;;;;;;;18.82;81.19;101202.84;5097048;28;20044;-67
2023/07/22 09:47:08;;;;;;;12.38;6.00;;;;;;;18.80;78.55;101199.59;5114131;28;20054;-65
2023/07/22 09:49:41;;;;;;;12.07;5.67;;;;;;;18.78;79.44;101194.38;5111978;28;20399;-67
2023/07/22 09:52:12;;;;;;;12.07;5.47;;;;;;;18.76;79.00;101199.44;5112248;28;20293;-67
2023/07/22 09:54:48;;;;;;;14.50;5.63;;;;;;;18.82;78.17;101200.09;5100242;28;20048;-66
2023/07/22 09:57:16;;;;;;;13.25;6.28;;;;;;;18.85;78.32;101192.00;5065226;28;20052;-66
2023/07/22 09:59:46;;;;;;;10.48;5.25;;;;;;;18.91;80.61;101192.69;5108670;28;20047;-65
2023/07/22 10:02:14;;;;;;;9.18;4.82;;;;;;;19.00;82.31;101196.31;5100138;28;20047;-66
2023/07/22 10:04:43;;;;;;;9.20;5.00;;;;;;;18.99;79.78;101194.69;5082677;28;20047;-66
2023/07/22 10:07:11;;;;;;;11.98;5.70;;;;;;;18.96;77.96;101191.75;5082241;28;20140;-67
2023/07/22 10:09:39;;;;;;;9.95;4.95;;;;;;;18.94;78.04;101192.06;5117663;28;20406;-66
2023/07/22 10:12:08;;;;;;;9.73;4.65;;;;;;;19.05;80.09;101198.94;5099817;28;20487;-66
2023/07/22 10:14:35;;;;;;;9.57;5.38;;;;;;;19.11;80.95;101194.91;5117564;28;20065;-65
2023/07/22 10:17:06;;;;;;;12.20;5.85;;;;;;;19.10;79.74;101198.81;5117931;28;20044;-66
2023/07/22 10:19:34;;;;;;;12.23;6.25;;;;;;;19.10;78.93;101200.78;5099577;28;20043;-65
2023/07/22 10:22:02;;;;;;;11.27;6.07;;;;;;;19.11;79.23;101196.88;5094162;28;20051;-66
2023/07/22 10:24:30;;;;;;;7.45;4.50;;;;;;;19.19;79.29;101189.75;5079253;28;20048;-66
2023/07/22 10:26:58;;;;;;;11.15;5.18;;;;;;;19.22;79.55;101194.63;5101156;28;20051;-66
2023/07/22 10:29:27;;;;;;;13.55;5.90;;;;;;;19.29;79.82;101197.75;5098330;28;20047;-66
2023/07/22 10:31:55;;;;;;;10.87;6.00;;;;;;;19.28;78.85;101198.91;4379779;28;10000846;-66
2023/07/22 10:34:24;;;;;;;11.88;6.07;;;;;;;19.24;79.61;101197.91;5111045;28;20302;-66
2023/07/22 10:36:53;;;;;;;11.10;5.55;;;;;;;19.33;78.90;101201.53;5114419;28;20129;-65
2023/07/22 10:39:28;;;;;;;7.65;4.05;;;;;;;19.30;80.56;101186.41;5094649;28;20503;-65
2023/07/22 10:42:04;;;;;;;11.67;4.30;;;;;;;19.39;80.37;101189.22;5079307;28;20398;-65
2023/07/22 10:44:36;;;;;;;;;;;;;;;19.48;80.32;101184.53;5080752;28;20043;-65
2023/07/22 10:47:04;;;;;;;10.63;4.30;;;;;;;19.55;76.18;101182.13;5114646;28;19927;-66
2023/07/22 10:49:47;;;;;;;10.13;3.90;;;;;;;19.64;77.09;101181.31;5093610;28;20051;-66
2023/07/22 10:52:15;;;;;;;7.25;3.90;;;;;;;19.51;76.89;101183.88;5078990;28;20325;-68
2023/07/22 10:54:43;;;;;;;7.45;3.80;;;;;;;19.47;75.95;101187.59;5095669;28;20043;-65
2023/07/22 10:57:17;;;;;;;8.75;3.75;;;;;;;19.51;76.74;101175.59;5095821;28;20491;-67
2023/07/22 10:59:49;;;;;;;10.27;4.53;;;;;;;19.52;75.37;101176.41;5112387;28;20047;-66
2023/07/22 11:02:28;;;;;;;9.88;4.10;;;;;;;19.48;74.04;101180.94;5113306;28;20047;-65
2023/07/22 11:04:59;;;;;;;10.25;4.53;;;;;;;19.52;73.47;101177.22;5079155;28;20056;-68
2023/07/22 11:07:42;;;;;;;6.60;3.20;;;;;;;19.63;78.06;101171.41;5075193;28;20071;-67
2023/07/22 11:10:18;;;;;;;7.13;3.38;;;;;;;19.79;78.96;101170.69;5089513;28;20074;-67
2023/07/22 11:12:47;;;;;;;7.70;3.45;;;;;;;19.82;76.80;101174.75;5114066;28;20080;-64
2023/07/22 11:15:18;;;;;;;10.48;3.53;;;;;;;19.75;73.50;101177.16;5112600;28;20054;-66
2023/07/22 11:17:46;;;;;;;5.93;3.10;;;;;;;19.76;74.72;101176.03;5112436;28;20213;-68
2023/07/22 11:20:14;;;;;;;6.97;3.30;;;;;;;19.78;71.58;101173.75;5112482;28;20039;-66